sensor_id;sensor_type;location;lat;lon;timestamp;pressure;altitude;pressure_sealevel;temperature;humidity
40946;BME280;55635;50.264;11.918;2023-04-06T00:00:03;95876.03;;;3.43;55.49
40946;BME280;55635;50.264;11.918;2023-04-06T00:02:50;95872.56;;;3.23;55.17
40946;BME280;55635;50.264;11.918;2023-04-06T00:05:33;95889.16;;;3.53;54.98
40946;BME280;55635;50.264;11.918;2023-04-06T00:08:14;95886.25;;;3.37;55.19
40946;BME280;55635;50.264;11.918;2023-04-06T00:10:55;95881.69;;;3.29;55.49
40946;BME280;55635;50.264;11.918;2023-04-06T00:13:37;95887.72;;;3.20;55.71
40946;BME280;55635;50.264;11.918;2023-04-06T00:16:20;95871.03;;;3.11;56.48
40946;BME280;55635;50.264;11.918;2023-04-06T00:19:01;95866.34;;;2.75;55.21
40946;BME280;55635;50.264;11.918;2023-04-06T00:21:41;95869.47;;;3.09;55.84
40946;BME280;55635;50.264;11.918;2023-04-06T00:24:23;95889.75;;;3.07;55.78
40946;BME280;55635;50.264;11.918;2023-04-06T00:27:04;95885.22;;;3.18;55.82
40946;BME280;55635;50.264;11.918;2023-04-06T00:29:46;95884.69;;;3.24;55.13
40946;BME280;55635;50.264;11.918;2023-04-06T00:32:27;95889.28;;;3.32;54.49
40946;BME280;55635;50.264;11.918;2023-04-06T00:35:09;95884.19;;;3.40;56.45
40946;BME280;55635;50.264;11.918;2023-04-06T00:37:50;95878.28;;;3.57;56.11
40946;BME280;55635;50.264;11.918;2023-04-06T00:40:31;95882.44;;;3.69;55.80
40946;BME280;55635;50.264;11.918;2023-04-06T00:43:14;95869.72;;;3.55;55.96
40946;BME280;55635;50.264;11.918;2023-04-06T00:45:55;95878.69;;;3.53;56.49
40946;BME280;55635;50.264;11.918;2023-04-06T00:48:36;95865.41;;;3.25;54.51
40946;BME280;55635;50.264;11.918;2023-04-06T00:51:17;95870.97;;;3.51;54.60
40946;BME280;55635;50.264;11.918;2023-04-06T00:53:58;95849.72;;;3.45;54.06
40946;BME280;55635;50.264;11.918;2023-04-06T00:56:41;95874.09;;;3.26;55.08
40946;BME280;55635;50.264;11.918;2023-04-06T00:59:23;95868.72;;;3.18;57.24
40946;BME280;55635;50.264;11.918;2023-04-06T01:02:05;95872.19;;;3.47;57.71
40946;BME280;55635;50.264;11.918;2023-04-06T01:04:59;95869.06;;;3.63;57.01
40946;BME280;55635;50.264;11.918;2023-04-06T01:07:51;95871.25;;;3.67;58.73
40946;BME280;55635;50.264;11.918;2023-04-06T01:10:36;95856.63;;;3.74;57.05
40946;BME280;55635;50.264;11.918;2023-04-06T01:13:37;95862.44;;;3.88;56.50
40946;BME280;55635;50.264;11.918;2023-04-06T01:16:21;95870.44;;;3.86;56.18
40946;BME280;55635;50.264;11.918;2023-04-06T01:19:22;95865.75;;;3.99;55.61
40946;BME280;55635;50.264;11.918;2023-04-06T01:22:07;95859.66;;;3.99;55.44
40946;BME280;55635;50.264;11.918;2023-04-06T01:24:58;95858.28;;;4.04;55.19
40946;BME280;55635;50.264;11.918;2023-04-06T01:27:46;95868.47;;;4.17;54.01
40946;BME280;55635;50.264;11.918;2023-04-06T01:30:39;95847.66;;;3.96;54.63
40946;BME280;55635;50.264;11.918;2023-04-06T01:33:27;95847.25;;;3.91;56.41
40946;BME280;55635;50.264;11.918;2023-04-06T01:36:16;95861.88;;;3.94;56.08
40946;BME280;55635;50.264;11.918;2023-04-06T01:38:58;95860.91;;;3.95;57.05
40946;BME280;55635;50.264;11.918;2023-04-06T01:41:47;95846.72;;;3.88;56.65
40946;BME280;55635;50.264;11.918;2023-04-06T01:44:30;95866.16;;;3.95;57.06
40946;BME280;55635;50.264;11.918;2023-04-06T01:47:21;95853.88;;;3.85;57.82
40946;BME280;55635;50.264;11.918;2023-04-06T01:50:03;95865.34;;;3.94;57.51
40946;BME280;55635;50.264;11.918;2023-04-06T01:52:49;95859.09;;;3.85;57.12
40946;BME280;55635;50.264;11.918;2023-04-06T01:55:31;95861.19;;;3.92;56.19
40946;BME280;55635;50.264;11.918;2023-04-06T01:58:34;95856.66;;;3.94;55.52
40946;BME280;55635;50.264;11.918;2023-04-06T02:01:17;95861.34;;;3.90;55.69
40946;BME280;55635;50.264;11.918;2023-04-06T02:04:09;95861.47;;;3.79;56.18
40946;BME280;55635;50.264;11.918;2023-04-06T02:06:51;95853.63;;;3.79;56.10
40946;BME280;55635;50.264;11.918;2023-04-06T02:09:36;95848.09;;;3.72;56.07
40946;BME280;55635;50.264;11.918;2023-04-06T02:12:19;95848.50;;;3.68;57.08
40946;BME280;55635;50.264;11.918;2023-04-06T02:15:00;95853.75;;;3.77;55.58
40946;BME280;55635;50.264;11.918;2023-04-06T02:17:42;95853.06;;;3.75;55.87
40946;BME280;55635;50.264;11.918;2023-04-06T02:20:24;95852.63;;;3.70;55.98
40946;BME280;55635;50.264;11.918;2023-04-06T02:23:06;95851.25;;;3.66;57.04
40946;BME280;55635;50.264;11.918;2023-04-06T02:25:47;95840.63;;;3.68;56.99
40946;BME280;55635;50.264;11.918;2023-04-06T02:28:28;95845.03;;;3.48;57.82
40946;BME280;55635;50.264;11.918;2023-04-06T02:31:09;95835.22;;;3.41;57.65
40946;BME280;55635;50.264;11.918;2023-04-06T02:33:52;95836.06;;;3.41;57.33
40946;BME280;55635;50.264;11.918;2023-04-06T02:36:33;95841.41;;;3.40;57.49
40946;BME280;55635;50.264;11.918;2023-04-06T02:39:15;95845.00;;;3.29;58.14
40946;BME280;55635;50.264;11.918;2023-04-06T02:41:57;95838.50;;;3.14;59.04
40946;BME280;55635;50.264;11.918;2023-04-06T02:44:39;95835.16;;;3.02;59.13
40946;BME280;55635;50.264;11.918;2023-04-06T02:47:20;95835.56;;;2.98;58.72
40946;BME280;55635;50.264;11.918;2023-04-06T02:50:04;95836.94;;;3.02;58.44
40946;BME280;55635;50.264;11.918;2023-04-06T02:52:48;95843.84;;;3.12;58.03
40946;BME280;55635;50.264;11.918;2023-04-06T02:55:29;95844.13;;;3.09;57.57
40946;BME280;55635;50.264;11.918;2023-04-06T02:58:11;95839.97;;;3.07;57.55
40946;BME280;55635;50.264;11.918;2023-04-06T03:00:59;95838.84;;;3.00;57.49
40946;BME280;55635;50.264;11.918;2023-04-06T03:03:41;95837.59;;;2.94;57.85
40946;BME280;55635;50.264;11.918;2023-04-06T03:06:28;95832.78;;;2.90;57.89
40946;BME280;55635;50.264;11.918;2023-04-06T03:09:13;95843.00;;;2.93;57.53
40946;BME280;55635;50.264;11.918;2023-04-06T03:11:57;95844.88;;;2.81;59.06
40946;BME280;55635;50.264;11.918;2023-04-06T03:14:39;95849.19;;;2.92;58.83
40946;BME280;55635;50.264;11.918;2023-04-06T03:17:20;95845.72;;;2.91;58.27
40946;BME280;55635;50.264;11.918;2023-04-06T03:20:01;95846.72;;;3.00;57.99
40946;BME280;55635;50.264;11.918;2023-04-06T03:22:44;95847.00;;;3.06;57.67
40946;BME280;55635;50.264;11.918;2023-04-06T03:25:29;95836.63;;;2.86;57.21
40946;BME280;55635;50.264;11.918;2023-04-06T03:28:15;95841.75;;;2.97;57.15
40946;BME280;55635;50.264;11.918;2023-04-06T03:31:11;95850.47;;;3.07;57.07
40946;BME280;55635;50.264;11.918;2023-04-06T03:33:58;95845.75;;;3.01;56.92
40946;BME280;55635;50.264;11.918;2023-04-06T03:36:45;95850.97;;;2.91;58.34
40946;BME280;55635;50.264;11.918;2023-04-06T03:39:26;95841.56;;;2.79;57.08
40946;BME280;55635;50.264;11.918;2023-04-06T03:42:07;95858.50;;;2.75;58.02
40946;BME280;55635;50.264;11.918;2023-04-06T03:44:51;95846.88;;;2.68;57.58
40946;BME280;55635;50.264;11.918;2023-04-06T03:47:33;95861.91;;;2.75;58.40
40946;BME280;55635;50.264;11.918;2023-04-06T03:50:19;95865.06;;;2.69;57.81
40946;BME280;55635;50.264;11.918;2023-04-06T03:53:00;95859.28;;;2.66;57.77
40946;BME280;55635;50.264;11.918;2023-04-06T03:55:43;95859.25;;;2.56;58.18
40946;BME280;55635;50.264;11.918;2023-04-06T03:58:24;95853.28;;;2.54;58.16
40946;BME280;55635;50.264;11.918;2023-04-06T04:01:06;95860.72;;;2.49;59.00
40946;BME280;55635;50.264;11.918;2023-04-06T04:03:49;95864.59;;;2.55;58.77
40946;BME280;55635;50.264;11.918;2023-04-06T04:06:30;95864.22;;;2.59;58.03
40946;BME280;55635;50.264;11.918;2023-04-06T04:09:11;95853.59;;;2.61;57.83
40946;BME280;55635;50.264;11.918;2023-04-06T04:11:52;95866.63;;;2.51;58.18
40946;BME280;55635;50.264;11.918;2023-04-06T04:14:34;95854.38;;;2.52;57.83
40946;BME280;55635;50.264;11.918;2023-04-06T04:17:16;95861.22;;;2.43;59.29
40946;BME280;55635;50.264;11.918;2023-04-06T04:19:57;95871.19;;;2.49;58.60
40946;BME280;55635;50.264;11.918;2023-04-06T04:22:38;95861.31;;;2.32;59.48
40946;BME280;55635;50.264;11.918;2023-04-06T04:25:19;95867.56;;;2.41;59.55
40946;BME280;55635;50.264;11.918;2023-04-06T04:28:03;95855.63;;;2.27;59.39
40946;BME280;55635;50.264;11.918;2023-04-06T04:30:45;95846.94;;;2.27;59.15
40946;BME280;55635;50.264;11.918;2023-04-06T04:33:27;95853.00;;;2.27;59.43
40946;BME280;55635;50.264;11.918;2023-04-06T04:36:11;95862.09;;;2.23;59.08
40946;BME280;55635;50.264;11.918;2023-04-06T04:38:57;95865.97;;;2.29;58.40
40946;BME280;55635;50.264;11.918;2023-04-06T04:41:38;95869.53;;;2.28;59.67
40946;BME280;55635;50.264;11.918;2023-04-06T04:44:23;95861.38;;;2.21;59.01
40946;BME280;55635;50.264;11.918;2023-04-06T04:47:05;95856.97;;;2.22;58.55
40946;BME280;55635;50.264;11.918;2023-04-06T04:49:55;95860.50;;;2.11;59.56
40946;BME280;55635;50.264;11.918;2023-04-06T04:52:38;95847.63;;;1.98;59.84
40946;BME280;55635;50.264;11.918;2023-04-06T04:55:36;95861.03;;;2.14;59.85
40946;BME280;55635;50.264;11.918;2023-04-06T04:58:20;95851.69;;;2.12;60.19
40946;BME280;55635;50.264;11.918;2023-04-06T05:01:06;95867.56;;;2.20;59.12
40946;BME280;55635;50.264;11.918;2023-04-06T05:03:47;95863.28;;;2.19;59.64
40946;BME280;55635;50.264;11.918;2023-04-06T05:06:30;95862.91;;;2.24;58.88
40946;BME280;55635;50.264;11.918;2023-04-06T05:09:11;95865.66;;;2.22;58.84
40946;BME280;55635;50.264;11.918;2023-04-06T05:11:56;95873.25;;;2.25;59.11
40946;BME280;55635;50.264;11.918;2023-04-06T05:14:37;95863.16;;;2.20;59.08
40946;BME280;55635;50.264;11.918;2023-04-06T05:17:22;95870.22;;;2.30;59.72
40946;BME280;55635;50.264;11.918;2023-04-06T05:20:05;95866.09;;;2.27;59.79
40946;BME280;55635;50.264;11.918;2023-04-06T05:22:51;95876.34;;;2.40;59.03
40946;BME280;55635;50.264;11.918;2023-04-06T05:25:32;95866.97;;;2.37;59.35
40946;BME280;55635;50.264;11.918;2023-04-06T05:28:22;95871.88;;;2.51;58.52
40946;BME280;55635;50.264;11.918;2023-04-06T05:31:03;95872.59;;;2.53;58.33
40946;BME280;55635;50.264;11.918;2023-04-06T05:33:51;95878.50;;;2.55;59.36
40946;BME280;55635;50.264;11.918;2023-04-06T05:36:43;95894.84;;;2.48;58.44
40946;BME280;55635;50.264;11.918;2023-04-06T05:39:37;95884.25;;;2.49;60.46
40946;BME280;55635;50.264;11.918;2023-04-06T05:42:18;95886.41;;;2.65;58.65
40946;BME280;55635;50.264;11.918;2023-04-06T05:45:11;95893.34;;;2.75;59.82
40946;BME280;55635;50.264;11.918;2023-04-06T05:47:57;95895.72;;;2.88;58.54
40946;BME280;55635;50.264;11.918;2023-04-06T05:50:42;95887.75;;;2.90;58.06
40946;BME280;55635;50.264;11.918;2023-04-06T05:53:26;95884.63;;;2.96;57.58
40946;BME280;55635;50.264;11.918;2023-04-06T05:56:12;95884.66;;;3.05;59.19
40946;BME280;55635;50.264;11.918;2023-04-06T05:58:53;95890.91;;;3.23;57.96
40946;BME280;55635;50.264;11.918;2023-04-06T06:01:41;95878.91;;;3.21;58.28
40946;BME280;55635;50.264;11.918;2023-04-06T06:04:22;95871.75;;;3.23;56.97
40946;BME280;55635;50.264;11.918;2023-04-06T06:07:06;95888.19;;;3.44;56.75
40946;BME280;55635;50.264;11.918;2023-04-06T06:09:57;95882.22;;;4.67;54.17
40946;BME280;55635;50.264;11.918;2023-04-06T06:12:44;95871.16;;;5.72;53.69
40946;BME280;55635;50.264;11.918;2023-04-06T06:15:26;95881.31;;;6.81;53.37
40946;BME280;55635;50.264;11.918;2023-04-06T06:18:07;95873.72;;;7.46;50.97
40946;BME280;55635;50.264;11.918;2023-04-06T06:20:48;95871.22;;;8.18;50.23
40946;BME280;55635;50.264;11.918;2023-04-06T06:23:30;95868.25;;;8.70;46.40
40946;BME280;55635;50.264;11.918;2023-04-06T06:26:11;95867.41;;;8.86;45.25
40946;BME280;55635;50.264;11.918;2023-04-06T06:28:52;95869.16;;;9.09;46.27
40946;BME280;55635;50.264;11.918;2023-04-06T06:31:33;95866.28;;;9.27;43.00
40946;BME280;55635;50.264;11.918;2023-04-06T06:34:14;95871.13;;;9.54;44.07
40946;BME280;55635;50.264;11.918;2023-04-06T06:36:56;95866.53;;;9.79;41.84
40946;BME280;55635;50.264;11.918;2023-04-06T06:39:38;95866.78;;;9.30;42.74
40946;BME280;55635;50.264;11.918;2023-04-06T06:42:19;95861.56;;;10.07;41.08
40946;BME280;55635;50.264;11.918;2023-04-06T06:45:20;95857.75;;;10.17;41.10
40946;BME280;55635;50.264;11.918;2023-04-06T06:48:01;95871.13;;;10.61;41.02
40946;BME280;55635;50.264;11.918;2023-04-06T06:50:42;95869.78;;;10.65;39.78
40946;BME280;55635;50.264;11.918;2023-04-06T06:53:24;95874.53;;;10.32;39.97
40946;BME280;55635;50.264;11.918;2023-04-06T06:56:05;95859.88;;;10.59;39.26
40946;BME280;55635;50.264;11.918;2023-04-06T06:58:47;95875.56;;;10.83;39.54
40946;BME280;55635;50.264;11.918;2023-04-06T07:01:28;95863.13;;;9.70;40.64
40946;BME280;55635;50.264;11.918;2023-04-06T07:04:10;95871.69;;;10.57;40.36
40946;BME280;55635;50.264;11.918;2023-04-06T07:06:51;95858.50;;;10.49;39.98
40946;BME280;55635;50.264;11.918;2023-04-06T07:09:33;95866.38;;;10.34;39.29
40946;BME280;55635;50.264;11.918;2023-04-06T07:12:14;95865.78;;;10.47;39.61
40946;BME280;55635;50.264;11.918;2023-04-06T07:14:57;95877.31;;;10.08;38.63
40946;BME280;55635;50.264;11.918;2023-04-06T07:17:38;95875.13;;;10.43;40.12
40946;BME280;55635;50.264;11.918;2023-04-06T07:20:19;95874.72;;;10.68;38.25
40946;BME280;55635;50.264;11.918;2023-04-06T07:23:01;95861.56;;;10.37;38.63
40946;BME280;55635;50.264;11.918;2023-04-06T07:25:43;95869.44;;;10.23;39.61
40946;BME280;55635;50.264;11.918;2023-04-06T07:28:25;95858.09;;;10.06;40.26
40946;BME280;55635;50.264;11.918;2023-04-06T07:31:08;95866.72;;;10.08;39.16
40946;BME280;55635;50.264;11.918;2023-04-06T07:33:50;95870.63;;;10.20;38.95
40946;BME280;55635;50.264;11.918;2023-04-06T07:36:32;95890.34;;;9.01;42.26
40946;BME280;55635;50.264;11.918;2023-04-06T07:39:14;95869.88;;;9.81;41.28
40946;BME280;55635;50.264;11.918;2023-04-06T07:41:55;95873.63;;;10.17;38.80
40946;BME280;55635;50.264;11.918;2023-04-06T07:44:36;95873.34;;;10.58;40.83
40946;BME280;55635;50.264;11.918;2023-04-06T07:47:17;95864.81;;;10.62;37.92
40946;BME280;55635;50.264;11.918;2023-04-06T07:49:58;95862.69;;;9.90;40.01
40946;BME280;55635;50.264;11.918;2023-04-06T07:52:39;95874.56;;;10.47;39.35
40946;BME280;55635;50.264;11.918;2023-04-06T07:55:22;95870.25;;;10.69;38.28
40946;BME280;55635;50.264;11.918;2023-04-06T07:58:03;95859.75;;;11.63;37.81
40946;BME280;55635;50.264;11.918;2023-04-06T08:00:44;95870.31;;;10.15;36.75
40946;BME280;55635;50.264;11.918;2023-04-06T08:03:25;95876.25;;;11.00;37.78
40946;BME280;55635;50.264;11.918;2023-04-06T08:06:06;95867.47;;;11.00;37.72
40946;BME280;55635;50.264;11.918;2023-04-06T08:08:47;95863.81;;;11.15;36.84
40946;BME280;55635;50.264;11.918;2023-04-06T08:11:28;95869.53;;;11.63;36.29
40946;BME280;55635;50.264;11.918;2023-04-06T08:14:09;95867.28;;;12.10;38.01
40946;BME280;55635;50.264;11.918;2023-04-06T08:16:50;95865.78;;;11.86;36.04
40946;BME280;55635;50.264;11.918;2023-04-06T08:19:30;95870.44;;;12.84;34.30
40946;BME280;55635;50.264;11.918;2023-04-06T08:22:12;95866.75;;;12.00;36.75
40946;BME280;55635;50.264;11.918;2023-04-06T08:24:53;95873.78;;;11.42;37.37
40946;BME280;55635;50.264;11.918;2023-04-06T08:27:34;95869.06;;;10.71;35.79
40946;BME280;55635;50.264;11.918;2023-04-06T08:30:15;95867.31;;;10.64;38.77
40946;BME280;55635;50.264;11.918;2023-04-06T08:32:56;95861.22;;;11.07;35.98
40946;BME280;55635;50.264;11.918;2023-04-06T08:35:37;95856.00;;;10.24;37.96
40946;BME280;55635;50.264;11.918;2023-04-06T08:38:18;95849.38;;;10.66;36.87
40946;BME280;55635;50.264;11.918;2023-04-06T08:40:59;95855.63;;;11.61;39.93
40946;BME280;55635;50.264;11.918;2023-04-06T08:44:02;95861.28;;;12.65;35.93
40946;BME280;55635;50.264;11.918;2023-04-06T08:46:43;95857.94;;;12.84;35.07
40946;BME280;55635;50.264;11.918;2023-04-06T08:49:25;95860.91;;;12.05;35.96
40946;BME280;55635;50.264;11.918;2023-04-06T08:52:07;95867.84;;;10.59;36.52
40946;BME280;55635;50.264;11.918;2023-04-06T08:54:48;95859.06;;;11.40;37.14
40946;BME280;55635;50.264;11.918;2023-04-06T08:57:31;95860.94;;;12.32;34.81
40946;BME280;55635;50.264;11.918;2023-04-06T09:00:13;95853.47;;;13.88;33.15
40946;BME280;55635;50.264;11.918;2023-04-06T09:02:56;95863.84;;;13.07;32.97
40946;BME280;55635;50.264;11.918;2023-04-06T09:05:38;95866.56;;;11.36;35.23
40946;BME280;55635;50.264;11.918;2023-04-06T09:08:20;95875.13;;;10.43;36.13
40946;BME280;55635;50.264;11.918;2023-04-06T09:11:02;95867.94;;;10.66;33.85
40946;BME280;55635;50.264;11.918;2023-04-06T09:13:50;95880.13;;;10.75;38.13
40946;BME280;55635;50.264;11.918;2023-04-06T09:16:40;95874.66;;;9.47;40.31
40946;BME280;55635;50.264;11.918;2023-04-06T09:19:22;95882.75;;;8.98;38.63
40946;BME280;55635;50.264;11.918;2023-04-06T09:22:06;95865.25;;;8.16;40.49
40946;BME280;55635;50.264;11.918;2023-04-06T09:24:50;95864.25;;;8.01;38.98
40946;BME280;55635;50.264;11.918;2023-04-06T09:27:34;95865.97;;;8.35;38.84
40946;BME280;55635;50.264;11.918;2023-04-06T09:30:15;95864.41;;;8.97;39.24
40946;BME280;55635;50.264;11.918;2023-04-06T09:32:58;95846.44;;;11.27;36.56
40946;BME280;55635;50.264;11.918;2023-04-06T09:35:40;95856.28;;;12.55;34.99
40946;BME280;55635;50.264;11.918;2023-04-06T09:38:29;95839.22;;;13.27;33.09
40946;BME280;55635;50.264;11.918;2023-04-06T09:41:10;95828.63;;;13.40;32.40
40946;BME280;55635;50.264;11.918;2023-04-06T09:44:01;95840.22;;;13.60;31.93
40946;BME280;55635;50.264;11.918;2023-04-06T09:46:44;95833.53;;;13.84;33.63
40946;BME280;55635;50.264;11.918;2023-04-06T09:49:30;95827.03;;;13.99;31.11
40946;BME280;55635;50.264;11.918;2023-04-06T09:52:17;95833.53;;;14.84;34.13
40946;BME280;55635;50.264;11.918;2023-04-06T09:55:03;95821.00;;;14.58;29.77
40946;BME280;55635;50.264;11.918;2023-04-06T10:01:03;95829.41;;;13.75;30.59
40946;BME280;55635;50.264;11.918;2023-04-06T10:07:05;95839.50;;;13.38;35.46
40946;BME280;55635;50.264;11.918;2023-04-06T10:09:48;95815.00;;;12.60;33.56
40946;BME280;55635;50.264;11.918;2023-04-06T10:12:30;95821.25;;;13.89;33.69
40946;BME280;55635;50.264;11.918;2023-04-06T10:15:11;95816.63;;;14.24;30.55
40946;BME280;55635;50.264;11.918;2023-04-06T10:17:52;95813.13;;;14.17;33.10
40946;BME280;55635;50.264;11.918;2023-04-06T10:23:47;95809.63;;;14.10;29.23
40946;BME280;55635;50.264;11.918;2023-04-06T10:26:28;95801.91;;;14.54;29.49
40946;BME280;55635;50.264;11.918;2023-04-06T10:29:09;95822.72;;;13.98;32.16
40946;BME280;55635;50.264;11.918;2023-04-06T10:31:50;95795.91;;;15.05;30.22
40946;BME280;55635;50.264;11.918;2023-04-06T10:34:35;95800.53;;;15.55;29.18
40946;BME280;55635;50.264;11.918;2023-04-06T10:37:17;95806.84;;;16.12;27.33
40946;BME280;55635;50.264;11.918;2023-04-06T10:39:59;95811.44;;;15.54;29.61
40946;BME280;55635;50.264;11.918;2023-04-06T10:42:40;95800.44;;;16.19;29.87
40946;BME280;55635;50.264;11.918;2023-04-06T10:45:23;95798.84;;;15.67;28.96
40946;BME280;55635;50.264;11.918;2023-04-06T10:48:14;95811.06;;;15.95;28.90
40946;BME280;55635;50.264;11.918;2023-04-06T10:50:57;95806.72;;;16.00;29.31
40946;BME280;55635;50.264;11.918;2023-04-06T10:53:38;95800.34;;;16.64;28.03
40946;BME280;55635;50.264;11.918;2023-04-06T10:56:23;95801.94;;;16.71;25.16
40946;BME280;55635;50.264;11.918;2023-04-06T10:59:06;95801.06;;;15.77;28.23
40946;BME280;55635;50.264;11.918;2023-04-06T11:01:48;95797.19;;;14.69;31.93
40946;BME280;55635;50.264;11.918;2023-04-06T11:04:29;95796.72;;;15.83;29.01
40946;BME280;55635;50.264;11.918;2023-04-06T11:07:10;95792.94;;;15.97;26.52
40946;BME280;55635;50.264;11.918;2023-04-06T11:09:52;95796.91;;;16.81;27.03
40946;BME280;55635;50.264;11.918;2023-04-06T11:12:36;95792.69;;;16.92;28.72
40946;BME280;55635;50.264;11.918;2023-04-06T11:15:17;95786.56;;;17.28;26.00
40946;BME280;55635;50.264;11.918;2023-04-06T11:17:58;95789.25;;;17.46;27.31
40946;BME280;55635;50.264;11.918;2023-04-06T11:20:39;95786.81;;;17.81;27.44
40946;BME280;55635;50.264;11.918;2023-04-06T11:23:24;95778.63;;;18.06;26.42
40946;BME280;55635;50.264;11.918;2023-04-06T11:26:13;95772.41;;;18.35;26.49
40946;BME280;55635;50.264;11.918;2023-04-06T11:28:54;95753.28;;;18.31;25.26
40946;BME280;55635;50.264;11.918;2023-04-06T11:31:50;95766.66;;;16.56;25.08
40946;BME280;55635;50.264;11.918;2023-04-06T11:34:35;95761.88;;;16.27;31.20
40946;BME280;55635;50.264;11.918;2023-04-06T11:37:17;95764.31;;;16.04;28.46
40946;BME280;55635;50.264;11.918;2023-04-06T11:39:58;95758.44;;;16.20;27.46
40946;BME280;55635;50.264;11.918;2023-04-06T11:42:39;95761.91;;;15.38;29.24
40946;BME280;55635;50.264;11.918;2023-04-06T11:45:21;95763.44;;;15.08;29.90
40946;BME280;55635;50.264;11.918;2023-04-06T11:48:02;95756.06;;;15.16;32.73
40946;BME280;55635;50.264;11.918;2023-04-06T11:50:47;95773.13;;;14.17;30.42
40946;BME280;55635;50.264;11.918;2023-04-06T11:53:29;95756.97;;;14.38;31.39
40946;BME280;55635;50.264;11.918;2023-04-06T11:56:10;95765.19;;;14.37;32.07
40946;BME280;55635;50.264;11.918;2023-04-06T11:58:53;95757.56;;;15.95;27.23
40946;BME280;55635;50.264;11.918;2023-04-06T12:01:34;95749.22;;;16.16;28.50
40946;BME280;55635;50.264;11.918;2023-04-06T12:04:25;95711.38;;;17.23;26.79
40946;BME280;55635;50.264;11.918;2023-04-06T12:07:06;95763.31;;;14.37;32.07
40946;BME280;55635;50.264;11.918;2023-04-06T12:09:47;95724.97;;;15.29;30.84
40946;BME280;55635;50.264;11.918;2023-04-06T12:12:28;95752.19;;;16.01;28.83
40946;BME280;55635;50.264;11.918;2023-04-06T12:15:10;95735.19;;;17.13;29.91
40946;BME280;55635;50.264;11.918;2023-04-06T12:17:51;95749.66;;;16.69;28.19
40946;BME280;55635;50.264;11.918;2023-04-06T12:20:32;95735.19;;;17.31;30.01
40946;BME280;55635;50.264;11.918;2023-04-06T12:23:13;95727.19;;;15.83;28.44
40946;BME280;55635;50.264;11.918;2023-04-06T12:25:54;95740.09;;;17.16;28.46
40946;BME280;55635;50.264;11.918;2023-04-06T12:28:35;95720.00;;;17.43;26.29
40946;BME280;55635;50.264;11.918;2023-04-06T12:31:18;95724.28;;;17.80;26.14
40946;BME280;55635;50.264;11.918;2023-04-06T12:34:00;95714.00;;;17.77;26.45
40946;BME280;55635;50.264;11.918;2023-04-06T12:36:42;95667.38;;;18.43;24.29
40946;BME280;55635;50.264;11.918;2023-04-06T12:39:23;95711.38;;;17.59;26.89
40946;BME280;55635;50.264;11.918;2023-04-06T12:42:04;95712.88;;;15.19;28.81
40946;BME280;55635;50.264;11.918;2023-04-06T12:44:45;95704.81;;;16.08;27.04
40946;BME280;55635;50.264;11.918;2023-04-06T12:47:27;95701.25;;;15.90;29.38
40946;BME280;55635;50.264;11.918;2023-04-06T12:50:09;95714.50;;;16.03;26.66
40946;BME280;55635;50.264;11.918;2023-04-06T12:52:50;95683.16;;;15.85;29.26
40946;BME280;55635;50.264;11.918;2023-04-06T12:55:31;95710.91;;;15.46;27.39
40946;BME280;55635;50.264;11.918;2023-04-06T12:58:14;95706.88;;;14.27;29.80
40946;BME280;55635;50.264;11.918;2023-04-06T13:00:58;95699.00;;;15.42;28.44
40946;BME280;55635;50.264;11.918;2023-04-06T13:03:43;95704.22;;;14.27;31.40
40946;BME280;55635;50.264;11.918;2023-04-06T13:06:24;95708.88;;;13.73;32.73
40946;BME280;55635;50.264;11.918;2023-04-06T13:09:08;95714.06;;;14.00;33.50
40946;BME280;55635;50.264;11.918;2023-04-06T13:11:49;95708.53;;;14.61;29.78
40946;BME280;55635;50.264;11.918;2023-04-06T13:14:30;95694.09;;;15.39;29.28
40946;BME280;55635;50.264;11.918;2023-04-06T13:17:12;95699.25;;;14.70;29.69
40946;BME280;55635;50.264;11.918;2023-04-06T13:19:53;95698.69;;;14.42;33.02
40946;BME280;55635;50.264;11.918;2023-04-06T13:22:33;95691.84;;;14.72;32.35
40946;BME280;55635;50.264;11.918;2023-04-06T13:25:14;95691.88;;;14.59;29.68
40946;BME280;55635;50.264;11.918;2023-04-06T13:27:56;95692.28;;;15.77;30.00
40946;BME280;55635;50.264;11.918;2023-04-06T13:30:37;95687.88;;;16.39;28.10
40946;BME280;55635;50.264;11.918;2023-04-06T13:33:18;95672.81;;;17.24;26.11
40946;BME280;55635;50.264;11.918;2023-04-06T13:35:59;95668.69;;;17.87;25.28
40946;BME280;55635;50.264;11.918;2023-04-06T13:38:40;95675.53;;;17.83;24.82
40946;BME280;55635;50.264;11.918;2023-04-06T13:41:23;95682.81;;;15.75;29.59
40946;BME280;55635;50.264;11.918;2023-04-06T13:44:05;95682.47;;;16.70;28.43
40946;BME280;55635;50.264;11.918;2023-04-06T13:46:46;95682.56;;;17.00;25.41
40946;BME280;55635;50.264;11.918;2023-04-06T13:49:28;95675.69;;;17.40;27.24
40946;BME280;55635;50.264;11.918;2023-04-06T13:52:09;95675.75;;;16.37;28.50
40946;BME280;55635;50.264;11.918;2023-04-06T13:54:56;95671.16;;;15.94;29.95
40946;BME280;55635;50.264;11.918;2023-04-06T13:57:37;95670.53;;;15.23;29.01
40946;BME280;55635;50.264;11.918;2023-04-06T14:00:18;95679.72;;;15.34;32.56
40946;BME280;55635;50.264;11.918;2023-04-06T14:02:59;95668.25;;;14.69;31.66
40946;BME280;55635;50.264;11.918;2023-04-06T14:05:40;95661.53;;;14.27;29.91
40946;BME280;55635;50.264;11.918;2023-04-06T14:08:21;95677.47;;;13.42;31.80
40946;BME280;55635;50.264;11.918;2023-04-06T14:11:02;95647.34;;;14.59;29.89
40946;BME280;55635;50.264;11.918;2023-04-06T14:13:43;95649.66;;;15.51;28.21
40946;BME280;55635;50.264;11.918;2023-04-06T14:16:24;95643.66;;;16.98;27.80
40946;BME280;55635;50.264;11.918;2023-04-06T14:19:05;95658.47;;;17.66;27.67
40946;BME280;55635;50.264;11.918;2023-04-06T14:21:46;95653.91;;;16.15;29.57
40946;BME280;55635;50.264;11.918;2023-04-06T14:24:27;95654.22;;;14.93;29.11
40946;BME280;55635;50.264;11.918;2023-04-06T14:27:08;95656.44;;;15.03;30.80